Time;durP1;ratioP1;P1;durP2;ratioP2;P2;SDS_P1;SDS_P2;PMS_P1;PMS_P2;Temp;Humidity;BMP_temperature;BMP_pressure;BME280_temperature;BME280_humidity;BME280_pressure;Samples;Min_cycle;Max_cycle;Signal;HPM_P1;HPM_P2
2023/05/22 00:00:20;;;;;;;6.63;4.38;;;;;;;23.84;50.96;100155.50;5073821;28;20136;-63
2023/05/22 00:02:49;;;;;;;5.97;4.70;;;;;;;23.83;50.97;100164.66;5073733;28;20102;-62
2023/05/22 00:05:19;;;;;;;6.68;5.00;;;;;;;23.81;50.94;100169.47;5073478;28;20122;-63
2023/05/22 00:07:48;;;;;;;6.32;4.60;;;;;;;23.80;51.06;100162.31;5073394;28;20088;-63
2023/05/22 00:10:16;;;;;;;6.80;4.93;;;;;;;23.80;50.99;100161.47;5073310;28;20080;-63
2023/05/22 00:12:45;;;;;;;6.10;4.82;;;;;;;23.78;51.13;100158.09;5073101;28;20054;-63
2023/05/22 00:15:13;;;;;;;6.22;4.90;;;;;;;23.77;50.96;100157.25;5073381;28;20063;-63
2023/05/22 00:17:41;;;;;;;6.05;4.40;;;;;;;23.76;51.00;100165.59;5073181;28;20044;-63
2023/05/22 00:20:10;;;;;;;5.53;4.50;;;;;;;23.75;50.88;100162.03;5073153;28;20044;-63
2023/05/22 00:22:40;;;;;;;6.60;4.30;;;;;;;23.73;51.15;100161.34;5072928;28;20481;-63
2023/05/22 00:25:10;;;;;;;5.82;4.50;;;;;;;23.72;51.05;100159.63;5071672;28;20131;-63
2023/05/22 00:27:38;;;;;;;6.57;4.90;;;;;;;23.70;51.12;100161.69;5073020;28;20041;-63
2023/05/22 00:30:07;;;;;;;5.78;4.68;;;;;;;23.69;51.10;100160.84;5072845;28;20067;-63
2023/05/22 00:32:36;;;;;;;6.57;4.60;;;;;;;23.68;50.99;100167.34;5072831;28;20048;-63
2023/05/22 00:35:05;;;;;;;5.80;4.38;;;;;;;23.67;51.10;100173.81;5072810;28;20447;-63
2023/05/22 00:37:33;;;;;;;6.32;4.68;;;;;;;23.66;51.02;100176.72;5072552;28;20057;-63
2023/05/22 00:40:04;;;;;;;6.38;4.68;;;;;;;23.65;51.20;100169.56;5072496;28;20489;-63
2023/05/22 00:42:33;;;;;;;5.78;4.30;;;;;;;23.64;51.37;100167.84;5072839;28;20123;-64
2023/05/22 00:45:01;;;;;;;5.88;4.47;;;;;;;23.63;51.13;100171.59;5072541;28;20044;-63
2023/05/22 00:47:29;;;;;;;6.15;4.30;;;;;;;23.62;51.14;100167.19;5072532;28;20446;-64
2023/05/22 00:49:58;;;;;;;6.45;4.43;;;;;;;23.61;51.09;100168.22;5072403;28;20044;-63
2023/05/22 00:52:26;;;;;;;5.78;4.30;;;;;;;23.59;51.21;100171.13;5072467;28;20052;-63
2023/05/22 00:54:54;;;;;;;5.90;4.20;;;;;;;23.59;51.24;100159.38;5072459;28;20052;-62
2023/05/22 00:57:24;;;;;;;5.88;4.40;;;;;;;23.57;51.14;100161.41;5072260;28;20482;-62
2023/05/22 00:59:52;;;;;;;5.93;4.10;;;;;;;23.56;51.19;100162.44;5072595;28;20102;-63
2023/05/22 01:02:21;;;;;;;5.35;4.10;;;;;;;23.54;51.23;100156.31;5072193;28;20482;-63
2023/05/22 01:04:49;;;;;;;5.90;4.65;;;;;;;23.53;51.22;100160.91;5072018;28;20566;-64
2023/05/22 01:07:17;;;;;;;6.30;4.20;;;;;;;23.52;51.43;100164.66;5072231;28;20055;-65
2023/05/22 01:09:45;;;;;;;6.20;4.10;;;;;;;23.50;51.25;100165.88;5072201;28;20377;-65
2023/05/22 01:12:20;;;;;;;5.32;4.10;;;;;;;23.51;51.22;100157.53;5071887;28;20404;-64
2023/05/22 01:15:03;;;;;;;5.90;4.32;;;;;;;23.49;51.18;100158.72;5072427;28;20052;-63
2023/05/22 01:17:36;;;;;;;;;;;;;;;23.47;51.33;100150.75;5072432;28;20063;-64
2023/05/22 01:20:13;;;;;;;6.72;4.45;;;;;;;23.46;51.12;100154.50;5072066;28;19920;-63
2023/05/22 01:23:20;;;;;;;6.00;4.30;;;;;;;23.46;51.11;100159.09;5071955;28;20059;-65
2023/05/22 01:26:12;;;;;;;5.43;4.18;;;;;;;23.43;51.36;100160.28;5070928;28;20059;-64
2023/05/22 01:29:03;;;;;;;5.45;4.25;;;;;;;23.42;51.31;100153.97;5071835;28;20045;-62
2023/05/22 01:31:39;;;;;;;6.10;4.28;;;;;;;23.41;51.30;100144.13;5071557;28;20515;-63
2023/05/22 01:34:10;;;;;;;5.65;4.07;;;;;;;23.40;51.52;100147.88;5071525;28;20162;-63
2023/05/22 01:36:41;;;;;;;5.75;3.83;;;;;;;23.37;51.21;100153.69;5071377;28;20087;-65
2023/05/22 01:39:09;;;;;;;5.90;4.18;;;;;;;23.37;51.37;100155.56;5071756;28;20060;-63
2023/05/22 01:41:37;;;;;;;5.93;4.45;;;;;;;23.36;51.41;100153.88;5071589;28;20052;-65
2023/05/22 01:44:05;;;;;;;5.85;4.10;;;;;;;23.34;51.37;100154.03;5071466;28;20040;-64
2023/05/22 01:46:35;;;;;;;6.18;4.50;;;;;;;23.34;51.38;100153.19;5071338;28;20044;-62
2023/05/22 01:49:03;;;;;;;5.40;4.18;;;;;;;23.33;51.42;100144.16;5071683;28;20048;-63
2023/05/22 01:51:43;;;;;;;6.03;3.80;;;;;;;23.32;51.45;100133.47;5071440;28;20473;-62
2023/05/22 01:54:30;;;;;;;5.65;4.22;;;;;;;23.30;51.65;100128.19;5071465;28;20045;-63
2023/05/22 01:57:06;;;;;;;5.07;4.13;;;;;;;23.30;51.55;100130.06;5071248;28;20044;-65
2023/05/22 01:59:40;;;;;;;6.03;4.25;;;;;;;23.29;51.47;100136.53;5071582;28;20106;-63
2023/05/22 02:02:11;;;;;;;5.22;4.00;;;;;;;23.27;51.53;100139.44;5071540;28;20055;-63
2023/05/22 02:04:44;;;;;;;5.35;3.65;;;;;;;23.27;51.48;100141.31;5071390;28;20079;-63
2023/05/22 02:07:14;;;;;;;5.55;4.55;;;;;;;23.25;51.68;100141.47;5071259;28;20045;-63
2023/05/22 02:09:46;;;;;;;5.68;4.05;;;;;;;23.24;51.61;100130.78;5071105;28;20456;-63
2023/05/22 02:12:15;;;;;;;5.45;4.20;;;;;;;23.22;51.72;100120.06;5071152;28;20048;-63
2023/05/22 02:14:43;;;;;;;5.53;3.80;;;;;;;23.21;51.51;100118.38;5071344;28;20256;-63
2023/05/22 02:17:13;;;;;;;5.75;3.92;;;;;;;23.20;51.54;100127.56;5071191;28;20048;-63
2023/05/22 02:19:41;;;;;;;5.45;3.67;;;;;;;23.19;51.66;100131.31;5071124;28;20084;-63
2023/05/22 02:22:12;;;;;;;5.32;3.92;;;;;;;23.18;51.63;100135.06;5071006;28;20048;-63
2023/05/22 02:24:43;;;;;;;5.47;4.07;;;;;;;23.18;51.66;100145.94;5071001;28;20044;-63
2023/05/22 02:27:11;;;;;;;5.72;4.25;;;;;;;23.15;51.85;100149.00;5070987;28;21102;-63
2023/05/22 02:29:39;;;;;;;5.25;4.10;;;;;;;23.14;51.61;100139.16;5070950;28;20051;-63
2023/05/22 02:32:08;;;;;;;5.47;4.10;;;;;;;23.14;51.64;100139.16;5071042;28;20388;-63
2023/05/22 02:34:38;;;;;;;6.10;4.18;;;;;;;23.14;51.82;100133.69;5070900;28;20059;-62
2023/05/22 02:37:06;;;;;;;5.35;3.90;;;;;;;23.12;51.90;100131.16;5071255;28;20084;-63
2023/05/22 02:39:34;;;;;;;5.75;3.90;;;;;;;23.11;51.84;100134.06;5071070;28;20120;-63
2023/05/22 02:42:02;;;;;;;5.28;3.88;;;;;;;23.10;51.68;100126.94;5071044;28;20044;-63
2023/05/22 02:44:30;;;;;;;5.25;3.72;;;;;;;23.08;51.66;100129.84;5071022;28;20071;-63
2023/05/22 02:46:59;;;;;;;5.45;3.95;;;;;;;23.08;51.98;100128.97;5070854;28;20102;-64
2023/05/22 02:49:27;;;;;;;5.65;4.00;;;;;;;23.07;51.80;100121.84;5073291;28;20040;-63
2023/05/22 02:51:59;;;;;;;5.00;3.80;;;;;;;23.05;51.77;100123.88;5074741;28;20059;-64
2023/05/22 02:54:27;;;;;;;4.90;3.60;;;;;;;23.03;51.90;100124.06;5074715;28;20048;-63
2023/05/22 02:56:55;;;;;;;4.70;3.40;;;;;;;23.03;51.86;100125.94;5074601;28;20056;-64
2023/05/22 02:59:24;;;;;;;5.15;3.80;;;;;;;23.01;52.07;100123.38;5074505;28;20044;-64
2023/05/22 03:01:53;;;;;;;5.60;3.95;;;;;;;23.01;52.00;100127.97;5074481;28;20114;-63
2023/05/22 03:04:21;;;;;;;4.75;3.58;;;;;;;23.00;51.97;100131.72;5074591;28;20045;-63
2023/05/22 03:06:49;;;;;;;5.43;3.80;;;;;;;22.99;52.13;100135.47;5074566;28;20044;-65
2023/05/22 03:09:19;;;;;;;5.45;4.10;;;;;;;22.98;51.96;100139.22;5074406;28;20432;-64
2023/05/22 03:11:47;;;;;;;4.68;3.60;;;;;;;22.96;52.09;100131.22;5074155;28;20490;-64
2023/05/22 03:14:15;;;;;;;4.90;3.65;;;;;;;22.96;51.97;100128.50;5074104;28;20049;-63
2023/05/22 03:16:43;;;;;;;6.30;3.88;;;;;;;22.95;51.96;100117.78;5074102;28;20139;-64
2023/05/22 03:19:15;;;;;;;4.97;3.72;;;;;;;22.95;51.96;100123.22;5073964;28;20102;-64
2023/05/22 03:21:44;;;;;;;6.55;4.03;;;;;;;22.93;52.17;100125.28;5074240;28;20507;-64
2023/05/22 03:24:12;;;;;;;4.75;3.35;;;;;;;22.92;52.01;100118.16;5074067;28;20052;-63
2023/05/22 03:26:42;;;;;;;5.30;3.80;;;;;;;22.91;52.05;100119.19;5073893;28;20049;-63
2023/05/22 03:29:10;;;;;;;4.57;3.50;;;;;;;22.90;52.13;100123.78;5073899;28;20493;-64
2023/05/22 03:31:39;;;;;;;5.28;3.53;;;;;;;22.89;52.24;100129.38;5073831;28;20496;-64
2023/05/22 03:34:07;;;;;;;4.28;3.20;;;;;;;22.88;52.13;100127.69;5073851;28;20546;-63
2023/05/22 03:36:35;;;;;;;6.07;3.75;;;;;;;22.87;52.26;100125.97;5073947;28;20123;-63
2023/05/22 03:39:04;;;;;;;4.85;3.70;;;;;;;22.87;52.30;100120.53;5073698;28;20044;-64
2023/05/22 03:41:32;;;;;;;6.32;3.45;;;;;;;22.86;52.29;100127.84;5073639;28;20040;-63
2023/05/22 03:44:02;;;;;;;6.38;4.05;;;;;;;22.85;52.18;100137.03;5073878;28;20041;-63
2023/05/22 03:46:31;;;;;;;5.28;3.80;;;;;;;22.84;52.19;100135.34;5073613;28;20607;-63
2023/05/22 03:48:59;;;;;;;5.22;3.60;;;;;;;22.82;52.25;100123.75;5073750;28;20044;-63
2023/05/22 03:51:27;;;;;;;5.72;3.90;;;;;;;22.81;52.37;100122.91;5073628;28;20110;-63
2023/05/22 03:53:55;;;;;;;5.07;3.60;;;;;;;22.81;52.38;100124.78;5073475;28;20047;-63
2023/05/22 03:56:23;;;;;;;5.38;3.65;;;;;;;22.81;52.46;100133.78;5073413;28;20102;-63
2023/05/22 03:58:51;;;;;;;4.80;3.50;;;;;;;22.80;52.35;100132.09;5073675;28;20102;-63
2023/05/22 04:01:22;;;;;;;4.40;3.20;;;;;;;22.79;52.57;100124.97;5073584;28;20091;-63
2023/05/22 04:03:50;;;;;;;5.00;3.60;;;;;;;22.78;52.33;100120.56;5073539;28;20131;-63
2023/05/22 04:06:20;;;;;;;5.30;3.58;;;;;;;22.77;52.29;100113.38;5073237;28;20048;-63
2023/05/22 04:08:48;;;;;;;5.00;3.58;;;;;;;22.76;52.48;100122.56;5073016;28;20386;-64
2023/05/22 04:11:17;;;;;;;5.00;3.72;;;;;;;22.76;52.24;100122.56;5073080;28;20102;-64
2023/05/22 04:13:45;;;;;;;5.38;3.80;;;;;;;22.75;52.53;100123.59;5073049;28;20098;-64
2023/05/22 04:16:16;;;;;;;5.18;3.47;;;;;;;22.75;52.48;100123.59;5073388;28;20040;-64
2023/05/22 04:18:46;;;;;;;4.85;3.50;;;;;;;22.74;52.39;100121.06;5073248;28;20102;-63
2023/05/22 04:21:14;;;;;;;4.80;3.65;;;;;;;22.74;52.70;100127.34;5072988;28;20056;-64
2023/05/22 04:23:43;;;;;;;4.10;3.20;;;;;;;22.73;52.61;100122.94;5073225;28;20056;-64
2023/05/22 04:26:12;;;;;;;4.80;3.17;;;;;;;22.72;52.65;100123.09;5072879;28;20044;-63
2023/05/22 04:28:44;;;;;;;4.72;3.72;;;;;;;22.72;52.48;100123.09;5072913;28;20459;-63
2023/05/22 04:31:13;;;;;;;;;;;;;;;22.71;52.62;100124.97;5073100;28;20045;-64
2023/05/22 04:33:41;;;;;;;4.75;3.40;;;;;;;22.70;52.71;100126.00;5072600;28;19959;-64
2023/05/22 04:36:11;;;;;;;6.95;3.30;;;;;;;22.70;52.71;100120.56;5072845;28;20044;-63
2023/05/22 04:38:40;;;;;;;4.55;3.45;;;;;;;22.70;52.75;100125.16;5072849;28;20048;-66
2023/05/22 04:41:09;;;;;;;5.30;3.40;;;;;;;22.68;52.78;100127.19;5072513;28;20049;-63
2023/05/22 04:43:37;;;;;;;4.60;3.20;;;;;;;22.68;52.70;100119.91;5072272;28;20118;-63
2023/05/22 04:46:07;;;;;;;4.43;3.15;;;;;;;22.67;52.73;100118.19;5072209;28;20059;-63
2023/05/22 04:48:35;;;;;;;4.72;3.33;;;;;;;22.67;52.86;100123.59;5072142;28;20440;-64
2023/05/22 04:51:05;;;;;;;4.90;3.10;;;;;;;22.66;52.94;100119.19;5072546;28;20045;-62
2023/05/22 04:53:35;;;;;;;5.05;3.40;;;;;;;22.66;52.78;100119.19;5072279;28;20509;-63
2023/05/22 04:56:03;;;;;;;4.93;3.47;;;;;;;22.65;52.74;100119.38;5072353;28;20403;-62
2023/05/22 04:58:32;;;;;;;5.22;3.40;;;;;;;22.65;52.74;100122.94;5071976;28;20068;-64
2023/05/22 05:01:00;;;;;;;5.78;3.45;;;;;;;22.65;52.84;100114.78;5072056;28;20044;-64
2023/05/22 05:03:28;;;;;;;4.38;3.17;;;;;;;22.65;53.04;100116.66;5072150;28;20424;-63
2023/05/22 05:05:58;;;;;;;5.15;3.50;;;;;;;22.64;52.89;100123.97;5071948;28;20442;-63
2023/05/22 05:08:26;;;;;;;4.88;3.30;;;;;;;22.64;52.95;100126.69;5072183;28;20048;-62
2023/05/22 05:10:56;;;;;;;4.88;3.55;;;;;;;22.64;53.02;100132.13;5071505;28;20497;-63
2023/05/22 05:13:24;;;;;;;5.13;3.30;;;;;;;22.64;52.96;100137.56;5071581;28;20052;-66
2023/05/22 05:15:52;;;;;;;3.92;2.92;;;;;;;22.65;53.14;100141.97;5071808;28;20490;-64
2023/05/22 05:18:20;;;;;;;4.63;3.15;;;;;;;22.62;52.91;100134.16;5071789;28;20048;-64
2023/05/22 05:20:48;;;;;;;4.88;3.20;;;;;;;22.64;53.16;100139.44;5071825;28;20055;-64
2023/05/22 05:23:16;;;;;;;4.82;3.10;;;;;;;22.63;52.97;100141.31;5071796;28;20048;-64
2023/05/22 05:25:45;;;;;;;4.47;3.40;;;;;;;22.63;53.06;100152.19;5071585;28;20052;-63
2023/05/22 05:28:14;;;;;;;4.65;2.95;;;;;;;22.63;53.14;100148.63;5071316;28;20063;-63
2023/05/22 05:30:43;;;;;;;3.92;2.83;;;;;;;22.64;52.99;100150.31;5071566;28;20049;-63
2023/05/22 05:33:11;;;;;;;4.53;3.10;;;;;;;22.63;52.83;100146.75;5071507;28;20085;-65
2023/05/22 05:35:39;;;;;;;5.18;3.50;;;;;;;22.63;53.10;100146.75;5071510;28;20052;-64
2023/05/22 05:38:10;;;;;;;4.35;3.28;;;;;;;22.63;53.24;100154.91;5071504;28;20070;-64
2023/05/22 05:40:38;;;;;;;5.55;3.40;;;;;;;22.63;53.04;100154.06;5071160;28;20079;-62
2023/05/22 05:43:07;;;;;;;5.43;3.50;;;;;;;22.63;53.32;100149.47;5071275;28;20083;-61
2023/05/22 05:45:37;;;;;;;4.78;3.28;;;;;;;22.62;53.21;100147.75;5071363;28;20135;-63
2023/05/22 05:48:07;;;;;;;4.88;3.30;;;;;;;22.62;53.09;100150.47;5073257;28;20053;-66
2023/05/22 05:50:35;;;;;;;4.50;3.13;;;;;;;22.62;53.10;100153.19;5070617;28;20501;-63
2023/05/22 05:53:03;;;;;;;4.30;2.97;;;;;;;22.63;53.38;100154.91;5070940;28;20044;-63
2023/05/22 05:55:32;;;;;;;4.85;3.40;;;;;;;22.63;53.28;100163.06;5070921;28;20517;-62
2023/05/22 05:58:01;;;;;;;4.93;3.67;;;;;;;22.63;53.26;100160.34;5069850;28;20044;-63
2023/05/22 06:00:30;;;;;;;4.15;2.88;;;;;;;22.63;53.27;100157.63;5068291;28;20044;-63
2023/05/22 06:02:59;;;;;;;4.20;3.22;;;;;;;22.62;53.41;100158.63;5069860;28;20425;-63
2023/05/22 06:05:28;;;;;;;5.80;3.17;;;;;;;22.63;53.45;100160.34;5069919;28;20053;-63
2023/05/22 06:07:57;;;;;;;6.05;2.95;;;;;;;22.63;53.34;100157.63;5067187;28;20059;-62
2023/05/22 06:10:25;;;;;;;4.68;3.00;;;;;;;22.63;53.49;100157.63;5070673;28;20040;-62
2023/05/22 06:12:54;;;;;;;4.28;2.95;;;;;;;22.62;53.48;100145.03;5070221;28;20144;-62
2023/05/22 06:15:22;;;;;;;4.53;3.15;;;;;;;22.63;53.53;100154.91;5069976;28;20484;-62
2023/05/22 06:17:50;;;;;;;5.07;3.40;;;;;;;22.63;53.42;100154.91;5069909;28;20040;-62
2023/05/22 06:20:20;;;;;;;5.82;3.35;;;;;;;22.62;53.54;100155.91;5070064;28;20450;-63
2023/05/22 06:22:48;;;;;;;4.68;2.90;;;;;;;22.63;53.50;100152.19;5072053;28;20052;-63
2023/05/22 06:25:16;;;;;;;5.88;3.22;;;;;;;22.63;53.67;100162.19;5074672;28;20048;-63
2023/05/22 06:27:44;;;;;;;5.20;3.08;;;;;;;22.63;53.62;100152.19;5074437;28;20044;-63
2023/05/22 06:30:14;;;;;;;4.22;3.05;;;;;;;22.64;53.64;100153.88;5074795;28;20048;-62
2023/05/22 06:32:52;;;;;;;5.45;3.08;;;;;;;22.64;53.53;100159.31;5074377;28;20406;-63
2023/05/22 06:35:22;;;;;;;5.15;3.38;;;;;;;22.64;53.67;100153.88;5074649;28;20050;-64
2023/05/22 06:37:50;;;;;;;4.30;2.80;;;;;;;22.64;53.54;100153.88;5073937;28;20132;-62
2023/05/22 06:40:18;;;;;;;5.05;3.10;;;;;;;22.65;53.58;100158.28;5074516;28;20055;-62
2023/05/22 06:42:46;;;;;;;4.10;2.67;;;;;;;22.65;53.57;100158.28;5074368;28;20044;-63
2023/05/22 06:45:16;;;;;;;4.13;2.88;;;;;;;22.66;53.96;100151.81;5074301;28;20055;-63
2023/05/22 06:47:44;;;;;;;4.63;3.33;;;;;;;22.67;53.75;100164.38;5072754;28;20098;-63
2023/05/22 06:50:13;;;;;;;4.45;2.85;;;;;;;22.68;53.87;100159.81;5072541;28;20052;-63
2023/05/22 06:52:42;;;;;;;4.15;3.05;;;;;;;22.69;53.82;100166.97;5072244;28;20397;-63
2023/05/22 06:55:10;;;;;;;4.70;3.03;;;;;;;22.68;53.59;100166.13;5072368;28;20117;-63
2023/05/22 06:57:38;;;;;;;5.93;3.03;;;;;;;22.70;53.56;100163.22;5072258;28;20049;-63
2023/05/22 07:00:10;;;;;;;4.25;2.95;;;;;;;22.70;53.57;100153.19;5072301;28;20117;-63
2023/05/22 07:02:39;;;;;;;5.15;3.00;;;;;;;22.71;53.50;100160.31;5073512;28;20408;-62
2023/05/22 07:05:10;;;;;;;5.32;3.13;;;;;;;22.71;53.65;100171.19;5073680;28;20470;-62
2023/05/22 07:07:38;;;;;;;4.72;3.10;;;;;;;22.73;53.54;100169.16;5073739;28;20044;-63
2023/05/22 07:10:08;;;;;;;4.63;3.00;;;;;;;22.72;53.62;100162.03;5073751;28;20131;-62
2023/05/22 07:12:37;;;;;;;4.20;2.97;;;;;;;22.75;53.73;100160.81;5073633;28;20048;-63
2023/05/22 07:15:09;;;;;;;4.63;2.90;;;;;;;22.74;53.66;100164.56;5073961;28;20060;-63
2023/05/22 07:17:40;;;;;;;4.38;3.05;;;;;;;22.76;53.73;100168.78;5073592;28;20052;-63
2023/05/22 07:20:09;;;;;;;4.18;2.97;;;;;;;22.76;53.71;100162.50;5073608;28;20053;-64
2023/05/22 07:22:37;;;;;;;4.03;2.95;;;;;;;22.76;53.98;100160.63;5073708;28;20044;-63
2023/05/22 07:25:08;;;;;;;4.63;2.90;;;;;;;22.78;53.71;100160.50;5073658;28;20129;-64
2023/05/22 07:27:36;;;;;;;6.47;3.13;;;;;;;22.77;53.90;100162.34;5073379;28;20048;-64
2023/05/22 07:30:06;;;;;;;4.68;2.80;;;;;;;22.78;53.77;100161.34;5073721;28;20067;-64
2023/05/22 07:32:34;;;;;;;4.90;2.92;;;;;;;22.79;54.12;100159.47;5073478;28;20048;-63
2023/05/22 07:35:02;;;;;;;4.00;2.72;;;;;;;22.79;53.84;100163.03;5073060;28;20088;-63
2023/05/22 07:37:31;;;;;;;4.55;2.72;;;;;;;22.80;53.85;100162.00;5073186;28;20052;-63
2023/05/22 07:39:59;;;;;;;5.28;3.00;;;;;;;22.81;53.86;100160.13;5073415;28;20489;-63
2023/05/22 07:42:29;;;;;;;4.40;3.15;;;;;;;22.81;53.84;100152.81;5073552;28;20533;-63
2023/05/22 07:44:57;;;;;;;4.30;3.05;;;;;;;22.82;54.06;100156.38;5073659;28;20045;-63
2023/05/22 07:47:25;;;;;;;4.97;3.03;;;;;;;22.83;54.08;100155.38;5073317;28;20114;-63
2023/05/22 07:49:53;;;;;;;4.72;3.15;;;;;;;22.83;54.05;100152.66;5073075;28;20091;-63
2023/05/22 07:52:22;;;;;;;4.32;2.70;;;;;;;22.83;53.96;100161.66;5073264;28;20469;-62
2023/05/22 07:54:50;;;;;;;4.30;2.70;;;;;;;22.84;53.87;100157.94;5073205;28;20055;-63
2023/05/22 07:57:19;;;;;;;3.70;2.60;;;;;;;22.86;53.79;100157.75;5072846;28;20037;-64
2023/05/22 07:59:49;;;;;;;3.70;2.60;;;;;;;22.87;54.01;100158.59;5072711;28;20405;-62
2023/05/22 08:02:18;;;;;;;4.00;2.78;;;;;;;22.87;53.70;100159.44;5072961;28;20053;-62
2023/05/22 08:04:47;;;;;;;5.35;2.80;;;;;;;22.89;54.01;100162.03;5072940;28;20327;-63
2023/05/22 08:07:15;;;;;;;4.70;2.80;;;;;;;22.89;54.24;100159.31;5073260;28;20410;-63
2023/05/22 08:09:45;;;;;;;4.50;2.95;;;;;;;22.91;54.18;100154.53;5072012;28;20052;-62
2023/05/22 08:12:13;;;;;;;4.18;2.80;;;;;;;22.92;54.08;100150.78;5071400;28;20083;-63
2023/05/22 08:14:41;;;;;;;4.28;2.80;;;;;;;22.93;54.08;100157.91;5073104;28;20511;-63
2023/05/22 08:17:11;;;;;;;4.05;2.88;;;;;;;22.94;54.06;100162.34;5073025;28;20041;-63
2023/05/22 08:19:39;;;;;;;4.45;3.10;;;;;;;22.94;53.90;100149.59;5072791;28;20059;-63
2023/05/22 08:22:08;;;;;;;4.20;2.67;;;;;;;22.95;54.15;100155.88;5073268;28;20048;-63
2023/05/22 08:24:36;;;;;;;4.55;2.85;;;;;;;22.96;54.10;100152.13;5073029;28;20041;-63
2023/05/22 08:27:04;;;;;;;4.13;2.70;;;;;;;22.96;54.10;100154.84;5073023;28;20048;-63
2023/05/22 08:29:33;;;;;;;4.63;2.95;;;;;;;22.97;54.02;100156.53;5072701;28;20094;-63
2023/05/22 08:32:01;;;;;;;3.72;2.63;;;;;;;22.98;54.05;100155.53;5072698;28;20080;-63
2023/05/22 08:34:31;;;;;;;4.25;2.97;;;;;;;22.99;54.14;100149.06;5072900;28;20144;-63
2023/05/22 08:36:59;;;;;;;4.50;2.90;;;;;;;23.00;53.88;100153.50;5072601;28;20049;-63
2023/05/22 08:39:28;;;;;;;5.45;2.70;;;;;;;23.00;54.24;100154.34;5072820;28;20136;-65
2023/05/22 08:41:56;;;;;;;4.10;2.80;;;;;;;23.01;54.15;100155.19;5072629;28;20447;-62
2023/05/22 08:44:25;;;;;;;3.67;2.50;;;;;;;23.02;54.16;100151.44;5072473;28;20044;-65
2023/05/22 08:46:55;;;;;;;5.00;2.75;;;;;;;23.03;54.22;100153.13;5071483;28;20070;-64
2023/05/22 08:49:24;;;;;;;4.00;2.58;;;;;;;23.04;54.21;100149.38;5072270;28;20558;-62
2023/05/22 08:52:00;;;;;;;5.18;2.50;;;;;;;23.06;54.01;100153.63;5072087;28;20501;-63
2023/05/22 08:54:29;;;;;;;4.10;2.80;;;;;;;23.06;54.07;100142.75;5072410;28;20044;-62
2023/05/22 08:56:58;;;;;;;4.10;2.80;;;;;;;23.08;53.98;100145.31;5072371;28;20048;-63
2023/05/22 08:59:26;;;;;;;3.80;2.85;;;;;;;23.09;54.16;100147.00;5072174;28;20094;-62
2023/05/22 09:01:56;;;;;;;4.35;2.70;;;;;;;23.11;54.04;100155.81;5072373;28;20127;-63
2023/05/22 09:04:27;;;;;;;4.95;2.78;;;;;;;23.12;54.15;100143.91;5071889;28;20455;-63
2023/05/22 09:06:56;;;;;;;4.57;2.70;;;;;;;23.13;54.08;100148.34;5072152;28;20052;-63
2023/05/22 09:09:24;;;;;;;3.85;2.70;;;;;;;23.14;53.93;100141.88;5071898;28;20075;-64
2023/05/22 09:11:55;;;;;;;4.25;2.92;;;;;;;23.16;53.92;100142.53;5071713;28;20438;-63
2023/05/22 09:14:23;;;;;;;4.82;2.80;;;;;;;23.17;54.07;100144.25;5072030;28;20044;-64
2023/05/22 09:16:53;;;;;;;4.32;2.70;;;;;;;23.18;54.26;100140.50;5072043;28;20076;-64
2023/05/22 09:19:22;;;;;;;5.65;2.90;;;;;;;23.19;54.18;100136.75;5072026;28;20571;-63
2023/05/22 09:21:50;;;;;;;4.10;2.45;;;;;;;23.21;54.15;100134.69;5071971;28;20045;-64
2023/05/22 09:24:19;;;;;;;4.13;2.75;;;;;;;23.22;54.21;100135.53;5071722;28;20048;-64
2023/05/22 09:26:47;;;;;;;3.67;2.60;;;;;;;23.24;54.21;100133.50;5071652;28;20040;-65
2023/05/22 09:29:15;;;;;;;4.15;2.75;;;;;;;23.25;54.31;100138.75;5071876;28;20063;-64
2023/05/22 09:31:44;;;;;;;3.35;2.42;;;;;;;23.25;54.31;100138.75;5071747;28;20048;-65
2023/05/22 09:34:14;;;;;;;5.30;2.80;;;;;;;23.27;54.31;100139.44;5071550;28;20052;-64
2023/05/22 09:36:43;;;;;;;4.60;2.75;;;;;;;23.27;54.32;100134.00;5071594;28;20094;-64
2023/05/22 09:39:11;;;;;;;4.03;2.55;;;;;;;23.30;54.42;100135.50;5071551;28;20044;-65
2023/05/22 09:41:40;;;;;;;3.33;2.50;;;;;;;23.30;54.32;100139.09;5071740;28;20217;-64
2023/05/22 09:44:15;;;;;;;4.72;2.50;;;;;;;23.32;54.31;100136.19;5071625;28;20048;-64
2023/05/22 09:46:46;;;;;;;5.28;2.42;;;;;;;23.33;54.33;100127.84;5071423;28;20041;-64
2023/05/22 09:49:15;;;;;;;3.90;2.70;;;;;;;23.35;54.30;100128.50;5071511;28;20094;-64
2023/05/22 09:51:46;;;;;;;3.72;2.55;;;;;;;23.36;54.44;100127.50;5071133;28;20488;-64
2023/05/22 09:54:16;;;;;;;3.75;2.58;;;;;;;23.38;54.34;100130.03;5071516;28;20053;-64
2023/05/22 09:56:48;;;;;;;4.15;2.58;;;;;;;23.40;54.51;100128.81;5071109;28;20465;-64
2023/05/22 09:59:22;;;;;;;3.88;2.65;;;;;;;23.42;54.39;100124.03;5071178;28;20125;-65
2023/05/22 10:01:50;;;;;;;;;;;;;;;23.43;54.44;100128.47;5071858;28;20053;-64
2023/05/22 10:04:19;;;;;;;3.75;2.35;;;;;;;23.46;54.15;100131.88;5071168;28;19928;-64
2023/05/22 10:06:51;;;;;;;5.72;2.50;;;;;;;23.48;54.48;100127.09;5071424;28;20477;-63
2023/05/22 10:09:23;;;;;;;4.78;2.78;;;;;;;23.49;54.34;100128.78;5071476;28;20080;-64
2023/05/22 10:11:54;;;;;;;3.90;2.23;;;;;;;23.51;54.50;100130.28;5071159;28;20052;-64
2023/05/22 10:14:24;;;;;;;3.80;2.50;;;;;;;23.53;54.45;100121.94;5070947;28;20080;-64
2023/05/22 10:16:54;;;;;;;4.40;2.58;;;;;;;23.54;54.40;100115.47;5071600;28;20131;-63
2023/05/22 10:19:25;;;;;;;3.95;2.47;;;;;;;23.56;54.51;100121.59;5071220;28;20044;-63
2023/05/22 10:21:57;;;;;;;4.18;2.40;;;;;;;23.58;54.42;100114.09;5071299;28;20135;-64
2023/05/22 10:24:25;;;;;;;3.70;2.30;;;;;;;23.60;54.51;100115.66;5070839;28;20048;-64
2023/05/22 10:26:55;;;;;;;3.47;2.45;;;;;;;23.62;54.63;100110.00;5071020;28;20049;-64
2023/05/22 10:29:29;;;;;;;4.40;2.63;;;;;;;23.63;54.57;100106.25;5070689;28;20154;-64
2023/05/22 10:32:06;;;;;;;4.72;2.60;;;;;;;23.65;54.51;100104.22;5070827;28;20048;-64
2023/05/22 10:34:42;;;;;;;3.58;2.42;;;;;;;23.66;54.49;100098.59;5071536;28;20052;-64
2023/05/22 10:37:21;;;;;;;4.82;2.60;;;;;;;23.68;54.31;100093.81;5071131;28;20468;-64
2023/05/22 10:40:00;;;;;;;3.92;2.40;;;;;;;23.72;54.51;100088.84;5070800;28;20079;-64
2023/05/22 10:42:31;;;;;;;3.97;2.42;;;;;;;23.74;54.55;100094.09;5071088;28;20135;-64
2023/05/22 10:45:01;;;;;;;4.45;2.22;;;;;;;23.77;54.62;100091.88;5071017;28;20055;-65
2023/05/22 10:47:29;;;;;;;3.80;2.40;;;;;;;23.79;54.87;100089.81;5070996;28;20060;-64
2023/05/22 10:50:06;;;;;;;3.65;2.38;;;;;;;23.82;54.90;100083.16;5071199;28;20071;-65
2023/05/22 10:52:35;;;;;;;3.55;2.35;;;;;;;23.84;54.63;100081.97;5070822;28;20048;-62
2023/05/22 10:55:07;;;;;;;4.40;2.40;;;;;;;23.87;54.83;100081.59;5070966;28;20389;-62
2023/05/22 10:57:39;;;;;;;4.18;2.42;;;;;;;23.89;55.00;100074.06;5070834;28;20394;-63
2023/05/22 11:00:10;;;;;;;3.73;2.50;;;;;;;23.93;54.95;100075.44;5070638;28;20547;-63
2023/05/22 11:02:43;;;;;;;3.90;2.60;;;;;;;23.96;55.13;100066.88;5070397;28;20048;-64
2023/05/22 11:05:34;;;;;;;3.50;2.30;;;;;;;24.00;55.29;100067.34;5070814;28;20040;-63
2023/05/22 11:08:12;;;;;;;4.05;2.42;;;;;;;24.05;55.28;100067.66;5070863;28;20452;-63
2023/05/22 11:10:53;;;;;;;3.42;2.13;;;;;;;24.09;55.40;100057.22;5073074;28;20051;-63
2023/05/22 11:13:25;;;;;;;3.40;2.30;;;;;;;24.12;55.11;100059.56;5073955;28;20469;-63
2023/05/22 11:15:56;;;;;;;3.90;2.42;;;;;;;24.16;55.48;100058.19;5074250;28;20055;-63
2023/05/22 11:18:28;;;;;;;3.75;2.30;;;;;;;24.19;55.43;100053.22;5074489;28;20051;-64
2023/05/22 11:20:59;;;;;;;3.72;2.50;;;;;;;24.23;55.52;100053.69;5074205;28;20060;-64
2023/05/22 11:23:27;;;;;;;3.95;2.50;;;;;;;24.27;55.58;100044.97;5074373;28;20099;-64
2023/05/22 11:25:55;;;;;;;3.63;2.22;;;;;;;24.31;55.35;100040.00;5073849;28;20084;-64
2023/05/22 11:28:25;;;;;;;3.88;2.35;;;;;;;24.35;55.55;100035.03;5074067;28;20049;-62
2023/05/22 11:30:54;;;;;;;4.40;2.58;;;;;;;24.39;55.80;100041.81;5073743;28;20485;-63
2023/05/22 11:33:23;;;;;;;4.32;2.42;;;;;;;24.43;55.80;100038.53;5073843;28;20048;-63
2023/05/22 11:35:53;;;;;;;4.65;2.50;;;;;;;24.47;55.64;100034.38;5073795;28;20059;-63
2023/05/22 11:38:21;;;;;;;3.28;2.30;;;;;;;24.51;55.59;100035.72;5073718;28;20059;-64